Time;durP1;ratioP1;P1;durP2;ratioP2;P2;SDS_P1;SDS_P2;PMS_P1;PMS_P2;Temp;Humidity;BMP_temperature;BMP_pressure;BME280_temperature;BME280_humidity;BME280_pressure;Samples;Min_cycle;Max_cycle;Signal;HPM_P1;HPM_P2
2023/01/26 00:00:47;;;;;;;16.67;9.95;;;5.70;99.90;;;;;;6222379;23;20004;-78
2023/01/26 00:03:13;;;;;;;16.92;10.23;;;5.70;99.90;;;;;;6221048;23;20000;-78
2023/01/26 00:05:39;;;;;;;16.90;10.80;;;5.70;99.90;;;;;;6222388;23;20434;-78
2023/01/26 00:08:06;;;;;;;17.67;11.02;;;5.70;99.90;;;;;;6222053;23;20119;-77
2023/01/26 00:10:31;;;;;;;17.15;10.85;;;5.70;99.90;;;;;;6222439;23;20000;-78
2023/01/26 00:12:57;;;;;;;20.98;12.70;;;5.70;99.90;;;;;;6222263;23;20005;-78
2023/01/26 00:15:23;;;;;;;18.42;11.55;;;5.70;99.90;;;;;;6222397;23;20000;-78
2023/01/26 00:17:51;;;;;;;18.35;11.70;;;5.60;99.90;;;;;;6222106;23;20001;-78
2023/01/26 00:20:17;;;;;;;17.00;11.63;;;5.60;99.90;;;;;;6220512;23;20068;-79
2023/01/26 00:22:43;;;;;;;17.15;11.45;;;5.60;99.90;;;;;;6222016;23;20070;-78
2023/01/26 00:25:09;;;;;;;18.38;11.52;;;5.60;99.90;;;;;;6220278;23;20035;-79
2023/01/26 00:27:34;;;;;;;17.90;11.38;;;5.60;99.90;;;;;;6221999;23;19997;-78
2023/01/26 00:30:00;;;;;;;17.25;9.57;;;5.60;99.90;;;;;;6222114;23;20008;-78
2023/01/26 00:32:26;;;;;;;17.55;10.70;;;5.60;99.90;;;;;;6221787;23;20005;-78
2023/01/26 00:34:52;;;;;;;14.07;8.90;;;5.60;99.90;;;;;;6222129;23;20303;-77
2023/01/26 00:37:17;;;;;;;16.25;9.88;;;5.60;99.90;;;;;;6221698;23;20083;-76
2023/01/26 00:39:43;;;;;;;15.50;8.90;;;5.70;99.90;;;;;;6221986;23;20005;-77
2023/01/26 00:42:12;;;;;;;16.15;9.80;;;5.70;99.90;;;;;;6222051;23;20003;-77
2023/01/26 00:44:38;;;;;;;16.75;10.60;;;5.60;99.90;;;;;;6220340;23;20001;-77
2023/01/26 00:47:05;;;;;;;16.67;11.63;;;5.60;99.90;;;;;;6220812;23;20023;-77
2023/01/26 00:49:31;;;;;;;16.23;8.75;;;5.60;99.90;;;;;;6220207;23;20040;-77
2023/01/26 00:51:57;;;;;;;14.95;10.13;;;5.60;99.90;;;;;;6221830;23;20007;-76
2023/01/26 00:54:23;;;;;;;16.60;10.75;;;5.60;99.90;;;;;;6222274;23;20040;-77
2023/01/26 00:56:48;;;;;;;14.65;9.70;;;5.60;99.90;;;;;;6222340;23;20012;-77
2023/01/26 00:59:14;;;;;;;14.63;9.52;;;5.60;99.90;;;;;;6220776;23;20047;-77
2023/01/26 01:01:39;;;;;;;14.35;8.73;;;5.60;99.90;;;;;;6219834;23;20087;-76
2023/01/26 01:04:05;;;;;;;12.98;8.55;;;5.60;99.90;;;;;;6221929;23;20414;-76
2023/01/26 01:06:31;;;;;;;14.52;8.27;;;5.60;99.90;;;;;;6221497;23;20000;-77
2023/01/26 01:08:56;;;;;;;12.40;8.25;;;5.60;99.90;;;;;;6220544;23;20334;-77
2023/01/26 01:11:22;;;;;;;12.95;7.85;;;5.60;99.90;;;;;;6220422;23;20452;-76
2023/01/26 01:13:48;;;;;;;11.38;7.55;;;5.70;99.90;;;;;;6220453;23;20005;-77
2023/01/26 01:16:15;;;;;;;12.20;8.07;;;5.70;99.90;;;;;;6221805;23;20005;-76
2023/01/26 01:18:41;;;;;;;11.38;8.10;;;5.80;99.90;;;;;;6221562;23;20412;-77
2023/01/26 01:21:09;;;;;;;12.15;8.07;;;5.80;99.90;;;;;;6221662;23;20100;-76
2023/01/26 01:23:36;;;;;;;12.45;7.68;;;5.80;99.90;;;;;;6221412;23;20001;-76
2023/01/26 01:26:03;;;;;;;11.60;7.38;;;5.80;99.90;;;;;;6219860;23;20083;-76
2023/01/26 01:28:28;;;;;;;9.55;6.80;;;5.80;99.90;;;;;;6221354;23;20011;-76
2023/01/26 01:30:54;;;;;;;10.65;6.82;;;5.80;99.90;;;;;;6221672;23;19997;-77
2023/01/26 01:33:21;;;;;;;9.85;6.82;;;5.90;99.90;;;;;;6219641;23;20001;-76
2023/01/26 01:36:02;;;;;;;10.85;6.85;;;5.90;99.90;;;;;;6221603;23;20331;-76
2023/01/26 01:38:28;;;;;;;9.68;6.47;;;5.90;99.90;;;;;;6221151;23;20127;-76
2023/01/26 01:40:55;;;;;;;9.82;6.80;;;5.90;99.90;;;;;;6221663;23;19997;-76
2023/01/26 01:43:21;;;;;;;11.15;7.07;;;5.80;99.90;;;;;;6221200;23;20004;-76
2023/01/26 01:45:49;;;;;;;9.57;6.22;;;5.70;99.90;;;;;;6221382;23;20000;-77
2023/01/26 01:48:26;;;;;;;10.07;6.38;;;5.70;99.90;;;;;;6220991;23;20004;-76
2023/01/26 01:50:56;;;;;;;10.80;7.47;;;5.70;99.90;;;;;;6221342;23;20422;-76
2023/01/26 01:53:31;;;;;;;8.57;5.88;;;5.70;99.90;;;;;;6219753;23;20007;-76
2023/01/26 01:56:01;;;;;;;7.88;5.47;;;5.70;99.90;;;;;;6221551;23;19997;-77
2023/01/26 01:58:30;;;;;;;8.35;5.40;;;5.70;99.90;;;;;;6221157;23;19997;-76
2023/01/26 02:00:57;;;;;;;8.70;5.97;;;5.70;99.90;;;;;;6221119;23;19996;-76
2023/01/26 02:03:25;;;;;;;10.30;5.88;;;5.70;99.90;;;;;;6219447;23;20008;-76
2023/01/26 02:05:58;;;;;;;8.10;5.30;;;5.70;99.90;;;;;;6221120;23;20422;-76
2023/01/26 02:08:29;;;;;;;8.43;5.70;;;5.70;99.90;;;;;;6220556;23;20004;-76
2023/01/26 02:10:59;;;;;;;7.50;5.03;;;5.70;99.90;;;;;;6219693;23;20001;-77
2023/01/26 02:13:26;;;;;;;7.70;5.30;;;5.80;99.90;;;;;;6220708;23;20005;-76
2023/01/26 02:15:52;;;;;;;8.30;5.40;;;5.80;99.90;;;;;;6219547;23;20000;-77
2023/01/26 02:18:17;;;;;;;7.68;5.18;;;5.80;99.90;;;;;;6220822;23;20138;-77
2023/01/26 02:20:52;;;;;;;7.78;5.45;;;5.80;99.90;;;;;;6220810;23;20001;-77
2023/01/26 02:23:45;;;;;;;10.43;6.80;;;5.80;99.90;;;;;;6220584;23;20000;-77
2023/01/26 02:26:14;;;;;;;10.93;6.95;;;5.70;99.90;;;;;;6220909;23;19996;-77
2023/01/26 02:28:41;;;;;;;11.10;7.75;;;5.70;99.90;;;;;;6220890;23;20438;-77
2023/01/26 02:31:09;;;;;;;10.75;7.10;;;5.70;99.90;;;;;;6220764;23;20119;-77
2023/01/26 02:33:35;;;;;;;10.35;6.50;;;5.60;99.90;;;;;;6220785;23;20005;-77
2023/01/26 02:36:02;;;;;;;10.30;6.93;;;5.60;99.90;;;;;;6220660;23;20011;-77
2023/01/26 02:38:41;;;;;;;8.93;6.07;;;5.60;99.90;;;;;;6220428;23;20000;-78
2023/01/26 02:42:37;;;;;;;9.57;6.38;;;5.70;99.90;;;;;;6219120;23;20386;-77
2023/01/26 02:44:07;;;;;;;10.02;7.22;;;5.70;99.90;;;;;;6220687;23;20001;-76
2023/01/26 02:46:33;;;;;;;10.73;6.93;;;5.70;99.90;;;;;;6220617;23;20054;-77
2023/01/26 02:51:43;;;;;;;9.63;6.53;;;5.70;99.90;;;;;;6220296;23;20071;-76
2023/01/26 02:55:20;;;;;;;9.40;6.82;;;5.70;99.90;;;;;;6220625;23;20001;-76
2023/01/26 02:56:54;;;;;;;8.32;6.00;;;5.70;99.90;;;;;;6220558;23;20000;-76
2023/01/26 02:59:20;;;;;;;8.65;6.40;;;5.70;99.90;;;;;;6220699;23;20035;-76
2023/01/26 03:01:49;;;;;;;10.00;6.85;;;5.80;99.90;;;;;;6218887;23;20430;-76
2023/01/26 03:04:14;;;;;;;11.85;7.13;;;5.80;99.90;;;;;;6220668;23;20004;-76
2023/01/26 03:06:40;;;;;;;9.88;6.72;;;5.80;99.90;;;;;;6220490;23;20429;-77
2023/01/26 03:09:06;;;;;;;9.57;5.95;;;5.80;99.90;;;;;;6220728;23;20011;-77
2023/01/26 03:11:40;;;;;;;9.65;6.28;;;5.70;99.90;;;;;;6220513;23;20036;-77
2023/01/26 03:14:10;;;;;;;10.30;6.68;;;5.70;99.90;;;;;;6220778;23;20027;-77
2023/01/26 03:16:35;;;;;;;10.57;7.40;;;5.70;99.90;;;;;;6220586;23;20007;-78
2023/01/26 03:29:44;;;;;;;10.43;6.80;;;5.60;99.90;;;;;;6220601;23;20071;-78
2023/01/26 03:32:10;;;;;;;9.40;6.28;;;5.70;99.90;;;;;;6220422;23;20000;-78
2023/01/26 03:34:36;;;;;;;9.45;6.13;;;5.70;99.90;;;;;;6219088;23;20072;-78
2023/01/26 03:37:02;;;;;;;8.65;6.07;;;5.70;99.90;;;;;;6220282;23;20032;-78
2023/01/26 03:56:20;;;;;;;7.63;5.30;;;5.70;99.90;;;;;;6219704;23;20015;-77
2023/01/26 03:59:06;;;;;;;7.55;4.95;;;5.70;99.90;;;;;;6218491;23;20012;-78
2023/01/26 04:01:33;;;;;;;6.88;4.97;;;5.80;99.90;;;;;;6218398;23;20054;-78
2023/01/26 04:09:30;;;;;;;7.57;4.93;;;5.90;99.90;;;;;;6220112;23;20020;-77
2023/01/26 04:11:56;;;;;;;8.93;5.90;;;5.90;99.90;;;;;;6220342;23;20005;-77
2023/01/26 04:22:44;;;;;;;7.60;4.38;;;6.00;99.90;;;;;;6219999;23;20011;-79
2023/01/26 04:25:15;;;;;;;7.50;4.90;;;6.00;99.90;;;;;;6219979;23;20007;-78
2023/01/26 04:27:42;;;;;;;5.50;4.38;;;6.00;99.90;;;;;;6220264;23;20333;-77
2023/01/26 04:30:10;;;;;;;6.70;4.40;;;6.00;99.90;;;;;;6220185;23;20095;-77
2023/01/26 04:32:36;;;;;;;6.65;4.28;;;6.00;99.90;;;;;;6219714;23;20011;-77
2023/01/26 04:35:02;;;;;;;6.20;3.70;;;6.10;99.90;;;;;;6218755;23;20008;-77
2023/01/26 04:37:28;;;;;;;5.75;3.80;;;6.10;99.90;;;;;;6218992;23;20013;-76
2023/01/26 04:39:54;;;;;;;5.82;3.65;;;6.10;99.90;;;;;;6221702;23;20054;-76
2023/01/26 04:42:23;;;;;;;5.03;3.38;;;6.20;99.90;;;;;;6220443;23;20004;-77
2023/01/26 04:44:49;;;;;;;5.30;3.85;;;6.20;99.90;;;;;;6221968;23;20338;-77
2023/01/26 04:47:15;;;;;;;5.28;3.50;;;6.30;99.90;;;;;;6220070;23;20001;-79
2023/01/26 04:49:41;;;;;;;4.70;3.30;;;6.30;99.90;;;;;;6220211;23;20315;-78
2023/01/26 04:52:06;;;;;;;4.35;3.20;;;6.30;99.90;;;;;;6221551;23;19997;-78
2023/01/26 04:54:32;;;;;;;4.95;3.22;;;6.40;99.90;;;;;;6221752;23;20086;-77
2023/01/26 04:56:57;;;;;;;5.88;3.22;;;6.40;99.90;;;;;;6221949;23;20000;-78
2023/01/26 04:59:23;;;;;;;3.92;2.83;;;6.50;99.90;;;;;;6221579;23;20049;-78
2023/01/26 05:01:49;;;;;;;4.13;2.60;;;6.60;99.90;;;;;;6221898;23;20314;-77
2023/01/26 05:04:14;;;;;;;3.92;2.75;;;6.60;99.90;;;;;;6220671;23;20001;-78
2023/01/26 05:06:43;;;;;;;4.97;3.17;;;6.60;99.90;;;;;;6220195;23;20011;-78
2023/01/26 05:09:09;;;;;;;4.15;2.67;;;6.60;99.90;;;;;;6221797;23;20011;-78
2023/01/26 05:11:35;;;;;;;3.17;2.40;;;6.60;99.90;;;;;;6221913;23;20071;-78
2023/01/26 05:14:01;;;;;;;3.13;2.30;;;6.70;99.90;;;;;;6221829;23;20079;-78
2023/01/26 05:16:27;;;;;;;2.75;2.05;;;6.70;99.90;;;;;;6221673;23;20016;-79
2023/01/26 05:18:53;;;;;;;3.63;2.30;;;6.80;99.90;;;;;;6220032;23;20009;-78
2023/01/26 05:21:19;;;;;;;3.28;2.33;;;6.80;99.90;;;;;;6220046;23;20004;-78
2023/01/26 05:23:45;;;;;;;3.17;2.20;;;6.80;99.90;;;;;;6220101;23;20000;-78
2023/01/26 05:26:11;;;;;;;2.45;1.70;;;6.80;99.90;;;;;;6222031;23;19997;-78
2023/01/26 05:28:36;;;;;;;3.45;2.17;;;6.80;99.90;;;;;;6220118;23;20068;-78
2023/01/26 05:31:02;;;;;;;2.95;2.00;;;6.90;99.90;;;;;;6221773;23;20047;-79
2023/01/26 05:33:28;;;;;;;2.92;2.03;;;6.90;99.90;;;;;;6220262;23;20036;-78
2023/01/26 05:35:54;;;;;;;3.38;1.80;;;6.90;99.90;;;;;;6221617;23;20072;-78
2023/01/26 05:38:20;;;;;;;2.47;1.90;;;6.90;99.90;;;;;;6219739;23;20408;-78
2023/01/26 05:40:46;;;;;;;3.03;1.70;;;6.90;99.90;;;;;;6221630;23;20001;-78
2023/01/26 05:43:12;;;;;;;2.75;2.00;;;6.90;99.90;;;;;;6221623;23;20035;-78
2023/01/26 05:45:39;;;;;;;4.43;2.30;;;6.90;99.90;;;;;;6222120;23;20438;-78
2023/01/26 05:48:05;;;;;;;3.15;1.70;;;7.00;99.90;;;;;;6220728;23;20003;-78
2023/01/26 05:50:31;;;;;;;3.55;2.10;;;7.00;99.90;;;;;;6221361;23;20004;-78
2023/01/26 05:52:59;;;;;;;2.45;1.80;;;7.00;99.90;;;;;;6219347;23;20039;-76
2023/01/26 05:55:25;;;;;;;3.08;2.00;;;7.00;99.90;;;;;;6221060;23;20028;-76
2023/01/26 05:57:50;;;;;;;2.45;1.65;;;7.00;99.90;;;;;;6221301;23;20000;-76
2023/01/26 06:00:16;;;;;;;2.83;1.77;;;7.00;99.90;;;;;;6221114;23;20330;-76
2023/01/26 06:02:42;;;;;;;2.90;1.90;;;7.00;99.90;;;;;;6220638;23;20001;-77
2023/01/26 06:05:08;;;;;;;4.43;2.40;;;7.10;99.90;;;;;;6219080;23;20062;-76
2023/01/26 06:07:34;;;;;;;2.92;2.00;;;7.10;99.90;;;;;;6218816;23;20000;-78
2023/01/26 06:09:59;;;;;;;2.45;1.88;;;7.10;99.90;;;;;;6221030;23;20001;-78
2023/01/26 06:12:30;;;;;;;2.72;1.92;;;7.10;99.90;;;;;;6220912;23;20008;-78
2023/01/26 06:14:56;;;;;;;2.75;1.98;;;7.10;99.90;;;;;;6221068;23;20000;-78
2023/01/26 06:17:22;;;;;;;3.03;2.00;;;7.10;99.90;;;;;;6220586;23;20009;-78
2023/01/26 06:19:47;;;;;;;2.60;1.73;;;7.20;99.90;;;;;;6219247;23;20092;-78
2023/01/26 06:22:13;;;;;;;3.58;2.33;;;7.20;99.90;;;;;;6220429;23;19997;-79
2023/01/26 06:24:39;;;;;;;3.33;2.40;;;7.10;99.90;;;;;;6218861;23;20011;-78
2023/01/26 06:27:12;;;;;;;3.50;1.70;;;7.10;99.90;;;;;;6220837;23;20078;-79
2023/01/26 06:29:38;;;;;;;2.40;1.80;;;7.10;99.90;;;;;;6218929;23;20025;-78
2023/01/26 06:32:04;;;;;;;2.50;1.65;;;7.10;99.90;;;;;;6219389;23;20131;-79
2023/01/26 06:34:30;;;;;;;2.15;1.50;;;7.10;99.90;;;;;;6220868;23;20001;-79
2023/01/26 06:36:56;;;;;;;3.13;2.13;;;7.10;99.90;;;;;;6219156;23;20032;-79
2023/01/26 06:39:22;;;;;;;2.13;1.73;;;7.10;99.90;;;;;;6220690;23;20004;-78
2023/01/26 06:41:47;;;;;;;2.25;1.60;;;7.10;99.90;;;;;;6219331;23;20004;-78
2023/01/26 06:44:13;;;;;;;2.42;1.70;;;7.10;99.90;;;;;;6220379;23;20000;-77
2023/01/26 06:46:38;;;;;;;2.20;1.80;;;7.10;99.90;;;;;;6220754;23;20000;-79
2023/01/26 06:49:04;;;;;;;2.70;1.80;;;7.10;99.90;;;;;;6219783;23;20054;-78
2023/01/26 06:51:45;;;;;;;2.65;1.98;;;7.10;99.90;;;;;;6219192;23;20105;-78
2023/01/26 06:54:13;;;;;;;2.63;1.90;;;7.10;99.90;;;;;;6219558;23;20453;-79
2023/01/26 06:56:38;;;;;;;2.17;1.60;;;7.10;99.90;;;;;;6219325;23;20012;-76
2023/01/26 06:59:04;;;;;;;2.17;1.75;;;7.10;99.90;;;;;;6220510;23;20001;-76
2023/01/26 07:01:36;;;;;;;3.35;1.95;;;7.10;99.90;;;;;;6220130;23;19997;-78
2023/01/26 07:04:02;;;;;;;3.05;1.83;;;7.10;99.90;;;;;;6218514;23;20008;-78
2023/01/26 07:06:27;;;;;;;2.95;1.77;;;7.10;99.90;;;;;;6218425;23;20083;-77
2023/01/26 07:08:53;;;;;;;3.55;2.03;;;7.10;99.90;;;;;;6218998;23;20075;-77
2023/01/26 07:11:19;;;;;;;3.67;1.88;;;7.10;99.90;;;;;;6220634;23;20035;-78
2023/01/26 07:13:46;;;;;;;3.05;1.92;;;7.10;99.90;;;;;;6218824;23;20011;-79
2023/01/26 07:16:13;;;;;;;3.03;1.67;;;7.10;99.90;;;;;;6218878;23;20444;-78
2023/01/26 07:18:39;;;;;;;2.28;1.80;;;7.10;99.90;;;;;;6218805;23;20460;-78
2023/01/26 07:21:08;;;;;;;2.13;1.73;;;7.10;99.90;;;;;;6218739;23;20191;-78
2023/01/26 07:23:34;;;;;;;2.92;1.90;;;7.00;99.90;;;;;;6218012;23;20001;-78
2023/01/26 07:25:59;;;;;;;2.15;1.73;;;7.10;99.90;;;;;;6220327;23;20409;-79
2023/01/26 07:28:26;;;;;;;2.92;1.58;;;7.10;99.90;;;;;;6220009;23;20329;-79
2023/01/26 07:30:52;;;;;;;2.70;1.65;;;7.10;99.90;;;;;;6218654;23;20001;-79
2023/01/26 07:33:18;;;;;;;2.55;1.50;;;7.10;99.90;;;;;;6218998;23;20418;-79
2023/01/26 07:35:48;;;;;;;2.10;1.23;;;7.10;99.90;;;;;;6220234;23;19996;-80
2023/01/26 07:38:17;;;;;;;1.48;1.20;;;7.10;99.90;;;;;;6218460;23;20032;-83
2023/01/26 07:40:42;;;;;;;2.78;1.20;;;7.10;99.90;;;;;;6218726;23;20011;-79
2023/01/26 07:43:08;;;;;;;1.90;1.15;;;7.10;99.90;;;;;;6220214;23;20044;-80
2023/01/26 07:46:09;;;;;;;2.60;1.20;;;7.10;99.90;;;;;;6220507;23;20028;-81
2023/01/26 07:48:36;;;;;;;1.15;0.80;;;7.10;99.90;;;;;;6157797;23;20068;-80
2023/01/26 07:54:28;;;;;;;0.70;0.57;;;7.10;99.90;;;;;;6185976;23;20009;-79
2023/01/26 07:56:54;;;;;;;1.67;0.80;;;7.10;99.90;;;;;;6219897;23;20307;-74
2023/01/26 07:59:20;;;;;;;1.67;0.65;;;7.10;99.90;;;;;;6219690;23;20047;-72
2023/01/26 08:01:48;;;;;;;1.90;0.73;;;7.10;99.90;;;;;;6219354;23;20326;-71
2023/01/26 08:04:14;;;;;;;1.77;0.70;;;7.10;99.90;;;;;;6219719;23;20080;-71
2023/01/26 08:06:39;;;;;;;1.35;0.80;;;7.20;99.90;;;;;;6219440;23;20718;-70
2023/01/26 08:09:05;;;;;;;1.80;0.70;;;7.10;99.90;;;;;;6218322;23;20438;-77
2023/01/26 08:11:31;;;;;;;0.77;0.52;;;7.20;99.90;;;;;;6220196;23;20004;-77
2023/01/26 08:13:56;;;;;;;2.28;0.60;;;7.20;99.90;;;;;;6222007;23;20342;-76
2023/01/26 08:16:22;;;;;;;4.30;0.65;;;7.20;99.90;;;;;;6221966;23;20000;-77
2023/01/26 08:18:48;;;;;;;0.45;0.40;;;7.20;99.90;;;;;;6220393;23;20088;-77
2023/01/26 08:21:15;;;;;;;0.85;0.50;;;7.20;99.90;;;;;;6222205;23;20303;-78
2023/01/26 08:23:42;;;;;;;1.45;0.50;;;7.20;99.90;;;;;;6222501;23;19996;-74
2023/01/26 08:26:11;;;;;;;1.10;0.50;;;7.20;99.90;;;;;;6222344;23;20000;-72
2023/01/26 08:28:37;;;;;;;1.15;0.50;;;7.20;99.90;;;;;;6221957;23;20517;-72
2023/01/26 08:31:17;;;;;;;0.70;0.40;;;7.30;99.90;;;;;;6219634;23;20004;-75
2023/01/26 08:33:43;;;;;;;1.20;0.45;;;7.30;99.90;;;;;;6220704;23;20077;-75
2023/01/26 08:36:11;;;;;;;1.13;0.50;;;7.30;99.90;;;;;;6221428;23;20037;-72
2023/01/26 08:38:37;;;;;;;0.68;0.50;;;7.30;99.90;;;;;;6221893;23;19989;-72
2023/01/26 08:41:03;;;;;;;1.38;0.60;;;7.30;99.90;;;;;;6222138;23;20426;-72
2023/01/26 08:43:29;;;;;;;2.60;0.50;;;7.40;99.90;;;;;;6222120;23;20009;-72
2023/01/26 08:45:55;;;;;;;0.75;0.52;;;7.40;99.90;;;;;;6222294;23;20007;-72
2023/01/26 08:48:20;;;;;;;1.10;0.60;;;7.40;99.90;;;;;;6221931;23;20000;-72
2023/01/26 08:50:46;;;;;;;1.85;0.60;;;7.40;99.90;;;;;;6220086;23;20005;-72
2023/01/26 08:53:12;;;;;;;0.50;0.40;;;7.50;99.90;;;;;;6222052;23;20430;-73
2023/01/26 08:55:38;;;;;;;1.02;0.60;;;7.50;99.90;;;;;;6220218;23;20015;-72
2023/01/26 08:58:03;;;;;;;1.33;0.65;;;7.40;99.90;;;;;;6220296;23;20008;-72
2023/01/26 09:00:30;;;;;;;1.58;0.50;;;7.40;99.90;;;;;;6222043;23;20050;-72
2023/01/26 09:03:03;;;;;;;1.63;0.50;;;7.40;99.90;;;;;;6221637;23;20015;-72
2023/01/26 09:05:34;;;;;;;2.20;0.57;;;7.40;99.90;;;;;;6221872;23;20011;-72
2023/01/26 09:08:00;;;;;;;1.00;0.50;;;7.40;99.90;;;;;;6221639;23;20005;-72
2023/01/26 09:10:26;;;;;;;2.75;0.80;;;7.60;99.90;;;;;;6221753;23;20004;-72
2023/01/26 09:12:52;;;;;;;2.15;0.95;;;7.60;99.90;;;;;;6220301;23;20059;-73
2023/01/26 09:15:17;;;;;;;2.25;0.80;;;7.60;99.90;;;;;;6220542;23;20004;-72
2023/01/26 09:17:43;;;;;;;2.60;0.75;;;7.60;99.90;;;;;;6221846;23;20130;-72
2023/01/26 09:20:10;;;;;;;1.10;0.47;;;7.60;99.90;;;;;;6221913;23;20075;-74
2023/01/26 09:22:36;;;;;;;2.20;0.65;;;7.60;99.90;;;;;;6221555;23;20000;-75
2023/01/26 09:25:02;;;;;;;1.95;0.68;;;7.60;99.90;;;;;;6221732;23;20060;-74
2023/01/26 09:27:27;;;;;;;1.85;0.57;;;7.60;99.90;;;;;;6221687;23;20084;-75
2023/01/26 09:29:54;;;;;;;1.40;0.77;;;7.60;99.90;;;;;;6221494;23;20017;-74
2023/01/26 09:32:20;;;;;;;1.00;0.50;;;7.70;99.90;;;;;;6221547;23;20027;-74
2023/01/26 09:34:46;;;;;;;2.53;0.90;;;7.70;99.90;;;;;;6219988;23;20337;-74
2023/01/26 09:37:12;;;;;;;2.72;0.80;;;7.70;99.90;;;;;;6219809;23;20091;-74
2023/01/26 09:39:37;;;;;;;3.55;0.82;;;7.70;99.90;;;;;;6221692;23;20052;-74
2023/01/26 09:42:26;;;;;;;1.13;0.63;;;7.70;99.90;;;;;;6221540;23;20001;-75
2023/01/26 09:45:16;;;;;;;0.65;0.47;;;7.70;99.90;;;;;;6212930;23;20000;-74
2023/01/26 09:47:53;;;;;;;2.08;0.50;;;7.70;99.90;;;;;;6221505;23;20437;-75
2023/01/26 09:50:24;;;;;;;1.77;0.52;;;7.70;99.90;;;;;;6221655;23;20426;-74
2023/01/26 09:52:53;;;;;;;0.98;0.50;;;7.70;99.90;;;;;;6221300;23;20000;-74
2023/01/26 09:55:21;;;;;;;4.45;0.60;;;7.80;99.90;;;;;;6221783;23;20000;-74
2023/01/26 09:57:51;;;;;;;0.85;0.45;;;7.60;99.90;;;;;;6221603;23;20004;-74
2023/01/26 10:00:26;;;;;;;0.98;0.50;;;7.70;99.90;;;;;;6221449;23;20004;-75
2023/01/26 10:02:54;;;;;;;0.98;0.40;;;7.70;99.90;;;;;;6221287;23;20000;-74
2023/01/26 10:05:40;;;;;;;1.23;0.70;;;7.70;99.90;;;;;;6221437;23;19996;-74
2023/01/26 10:08:15;;;;;;;1.17;0.45;;;7.70;99.90;;;;;;6221395;23;20067;-74
2023/01/26 10:10:53;;;;;;;2.50;0.40;;;7.70;99.90;;;;;;6221387;23;20007;-75
2023/01/26 10:13:20;;;;;;;2.17;0.65;;;7.80;99.90;;;;;;6219666;23;20009;-75
2023/01/26 10:16:09;;;;;;;1.15;0.60;;;7.80;99.90;;;;;;6221223;23;20008;-75
2023/01/26 10:18:48;;;;;;;1.50;0.50;;;7.80;99.90;;;;;;6214498;23;20027;-74
2023/01/26 10:21:18;;;;;;;2.70;0.65;;;7.80;99.90;;;;;;6219112;23;20011;-75
2023/01/26 10:23:48;;;;;;;1.15;0.60;;;7.80;99.90;;;;;;6221193;23;20003;-75
2023/01/26 10:26:17;;;;;;;1.90;0.55;;;7.80;99.90;;;;;;6221092;23;20004;-74
2023/01/26 10:28:45;;;;;;;3.65;0.63;;;7.80;99.90;;;;;;6220869;23;20084;-74
2023/01/26 10:31:32;;;;;;;1.83;0.52;;;7.90;99.90;;;;;;6219584;23;20062;-74
2023/01/26 10:34:00;;;;;;;0.80;0.40;;;7.90;99.90;;;;;;6220844;23;20021;-74
2023/01/26 10:36:30;;;;;;;1.33;0.45;;;7.80;99.90;;;;;;6218995;23;20000;-74
2023/01/26 10:39:13;;;;;;;2.20;0.45;;;7.90;99.90;;;;;;6221461;23;20000;-74
2023/01/26 10:41:39;;;;;;;2.10;0.70;;;7.90;99.90;;;;;;6221331;23;20457;-74
2023/01/26 10:44:14;;;;;;;3.40;0.70;;;7.90;99.90;;;;;;6221089;23;19997;-74
2023/01/26 10:46:41;;;;;;;3.35;0.70;;;7.90;99.90;;;;;;6220714;23;20004;-74
2023/01/26 10:49:16;;;;;;;2.10;0.50;;;7.90;99.90;;;;;;6220955;23;20007;-74
2023/01/26 10:51:44;;;;;;;1.73;0.47;;;7.90;99.90;;;;;;6220623;23;20005;-75
2023/01/26 10:54:32;;;;;;;0.98;0.50;;;8.00;99.90;;;;;;6219060;23;20008;-75
2023/01/26 10:57:06;;;;;;;1.98;0.70;;;8.00;99.90;;;;;;6221168;23;20024;-75
2023/01/26 10:59:51;;;;;;;1.90;0.50;;;7.90;99.90;;;;;;6221408;23;20044;-75
2023/01/26 11:02:23;;;;;;;3.95;0.75;;;7.90;99.90;;;;;;6220651;23;19996;-75
2023/01/26 11:05:07;;;;;;;2.67;0.68;;;7.90;99.90;;;;;;6220855;23;20000;-75
2023/01/26 11:07:34;;;;;;;;;;;7.90;99.90;;;;;;6220987;23;20003;-75
2023/01/26 11:10:33;;;;;;;1.77;0.65;;;7.90;99.90;;;;;;6218967;23;20349;-75
2023/01/26 11:13:11;;;;;;;1.10;0.47;;;7.90;99.90;;;;;;6186988;23;20005;-75
2023/01/26 11:15:44;;;;;;;2.13;0.70;;;8.00;99.90;;;;;;6220755;23;20330;-75
2023/01/26 11:18:32;;;;;;;1.83;0.70;;;8.10;99.90;;;;;;6220474;23;20005;-75
2023/01/26 11:21:11;;;;;;;1.40;0.52;;;8.10;99.90;;;;;;6220279;23;20005;-75
2023/01/26 11:24:07;;;;;;;2.58;0.68;;;8.10;99.90;;;;;;6218743;23;20001;-75
2023/01/26 11:26:39;;;;;;;1.70;0.75;;;8.20;99.90;;;;;;6218737;23;20000;-75
2023/01/26 11:29:07;;;;;;;2.28;0.70;;;8.10;99.90;;;;;;6220519;23;20013;-75
2023/01/26 11:31:48;;;;;;;2.38;0.80;;;8.20;99.90;;;;;;6220440;23;20008;-75
2023/01/26 11:34:48;;;;;;;1.30;0.60;;;8.20;99.90;;;;;;6220806;23;20009;-75
2023/01/26 11:37:29;;;;;;;1.30;0.63;;;8.30;99.90;;;;;;6218419;23;20434;-75
2023/01/26 11:40:13;;;;;;;5.63;1.23;;;8.30;99.90;;;;;;6220334;23;20040;-75
2023/01/26 11:43:07;;;;;;;2.72;0.68;;;8.30;99.90;;;;;;6217127;23;20051;-75
2023/01/26 11:45:53;;;;;;;;;;;8.40;99.90;;;;;;6217701;23;20082;-75
2023/01/26 11:48:28;;;;;;;2.65;0.60;;;8.30;99.90;;;;;;6220451;23;19906;-75
2023/01/26 11:50:59;;;;;;;3.95;0.73;;;8.40;99.90;;;;;;6218303;23;20009;-74
2023/01/26 11:53:52;;;;;;;1.23;0.73;;;8.40;99.90;;;;;;6218529;23;20061;-75
2023/01/26 11:57:03;;;;;;;3.88;0.73;;;8.40;99.90;;;;;;6220290;23;20491;-74
2023/01/26 11:59:52;;;;;;;2.85;0.75;;;8.40;99.90;;;;;;6219346;23;20008;-75
2023/01/26 12:02:24;;;;;;;4.07;1.10;;;8.50;99.90;;;;;;6218332;23;20055;-75
2023/01/26 12:04:51;;;;;;;2.50;0.82;;;8.50;99.90;;;;;;6219203;23;20031;-74
2023/01/26 12:07:28;;;;;;;3.00;0.70;;;8.40;99.90;;;;;;6218752;23;19997;-75
2023/01/26 12:09:55;;;;;;;5.40;1.00;;;8.50;99.90;;;;;;6217574;23;20009;-75
2023/01/26 12:12:34;;;;;;;3.25;1.00;;;8.50;99.90;;;;;;6219004;23;20001;-75
2023/01/26 12:15:11;;;;;;;2.75;0.80;;;8.50;99.90;;;;;;6217677;23;20001;-70
2023/01/26 12:18:08;;;;;;;5.55;0.93;;;8.50;99.90;;;;;;6219300;23;19997;-70
2023/01/26 12:20:57;;;;;;;3.92;1.00;;;8.60;99.90;;;;;;6218895;23;20012;-71
2023/01/26 12:23:36;;;;;;;3.90;1.02;;;8.60;99.90;;;;;;6219354;23;20001;-71
2023/01/26 12:26:10;;;;;;;4.43;0.98;;;8.70;99.90;;;;;;6218076;23;20016;-71
2023/01/26 12:28:45;;;;;;;3.78;0.77;;;8.60;99.90;;;;;;6219180;23;20434;-72
2023/01/26 12:31:28;;;;;;;3.67;0.93;;;8.60;99.90;;;;;;6218580;23;20005;-72
2023/01/26 12:33:55;;;;;;;4.20;0.60;;;8.60;99.90;;;;;;6219313;23;20024;-72
2023/01/26 12:36:57;;;;;;;2.70;0.75;;;8.60;99.90;;;;;;6218080;23;20001;-71
2023/01/26 12:39:34;;;;;;;4.03;0.90;;;8.60;99.90;;;;;;6218621;23;20007;-74
2023/01/26 12:42:21;;;;;;;2.80;0.70;;;8.60;99.90;;;;;;6217248;23;20020;-75
2023/01/26 12:45:01;;;;;;;3.47;0.63;;;8.60;99.90;;;;;;6214893;23;20040;-74
2023/01/26 12:47:35;;;;;;;3.03;0.88;;;8.70;99.90;;;;;;6217449;23;20053;-77
2023/01/26 12:50:23;;;;;;;2.13;0.88;;;8.70;99.90;;;;;;6217703;23;20008;-72
2023/01/26 12:52:53;;;;;;;4.18;0.77;;;8.70;99.90;;;;;;6218375;23;20007;-73
2023/01/26 12:55:35;;;;;;;3.55;0.82;;;8.70;99.90;;;;;;6218455;23;20001;-74
2023/01/26 12:58:09;;;;;;;2.47;0.73;;;8.80;99.90;;;;;;6219313;23;20004;-72
2023/01/26 13:00:37;;;;;;;3.88;1.00;;;8.70;99.90;;;;;;6220992;23;20008;-74
2023/01/26 13:03:25;;;;;;;1.65;0.70;;;8.70;99.90;;;;;;6219616;23;20011;-72
2023/01/26 13:06:11;;;;;;;3.65;0.77;;;8.80;99.90;;;;;;6220779;23;20067;-73
2023/01/26 13:08:36;;;;;;;2.67;0.77;;;8.80;99.90;;;;;;6221105;23;19997;-73
2023/01/26 13:11:08;;;;;;;3.58;0.90;;;8.80;99.90;;;;;;6218872;23;20008;-72
2023/01/26 13:13:55;;;;;;;3.42;0.90;;;8.80;99.90;;;;;;6218813;23;20000;-72
2023/01/26 13:16:33;;;;;;;2.53;0.88;;;8.80;99.90;;;;;;6220307;23;19997;-72
2023/01/26 13:19:00;;;;;;;3.95;0.80;;;8.80;99.90;;;;;;6221140;23;20024;-72
2023/01/26 13:21:38;;;;;;;2.13;0.60;;;8.80;99.90;;;;;;6218949;23;20080;-73
2023/01/26 13:24:16;;;;;;;2.65;1.00;;;8.80;99.90;;;;;;6218429;23;20031;-72
2023/01/26 13:26:51;;;;;;;3.65;0.75;;;8.80;99.90;;;;;;6220464;23;20024;-72
2023/01/26 13:29:26;;;;;;;2.97;0.98;;;8.90;99.90;;;;;;6219103;23;20447;-72
2023/01/26 13:32:16;;;;;;;3.50;0.80;;;8.90;99.90;;;;;;6218438;23;20006;-72
2023/01/26 13:34:46;;;;;;;3.13;0.70;;;8.90;99.90;;;;;;6190549;23;20009;-72
2023/01/26 13:37:33;;;;;;;3.17;0.90;;;8.80;99.90;;;;;;6218227;23;20005;-72
2023/01/26 13:40:04;;;;;;;4.72;0.88;;;8.80;99.90;;;;;;6218844;23;20004;-72
2023/01/26 13:42:47;;;;;;;5.93;0.90;;;8.80;99.90;;;;;;6220424;23;19997;-72
2023/01/26 13:45:35;;;;;;;4.30;0.90;;;8.70;99.90;;;;;;6220983;23;19997;-71
2023/01/26 13:48:04;;;;;;;4.10;0.65;;;8.70;99.90;;;;;;6220112;23;20031;-71
2023/01/26 13:50:32;;;;;;;5.80;0.80;;;8.70;99.90;;;;;;6219420;23;20008;-71
2023/01/26 13:52:58;;;;;;;3.50;0.75;;;8.60;99.90;;;;;;6218957;23;20392;-70
2023/01/26 13:55:29;;;;;;;1.85;0.63;;;8.60;99.90;;;;;;6220997;23;20123;-71
2023/01/26 13:58:21;;;;;;;2.25;0.63;;;8.60;99.90;;;;;;6220876;23;20080;-69
2023/01/26 14:01:04;;;;;;;3.65;0.90;;;8.60;99.90;;;;;;6217730;23;20063;-71